Google Maps JavaScript API Example
Pilot Flight Report # 95505 Submitted by : AST195 on 2021-10-16
Date: 2021-10-16Aircraft: Airbus A320-200
Flight No.: AST20346Distance (Nm): 989.43
Departure: KOKC - Will Rogers WorldDestination: KBOI - Boise Air Terminal/Gowen
 TimeFuelWeightSpeeds  
Out (Taxi)1737 Flight RulesIFR
Off (Takeoff)1737 Flight Level
On (Landing)2030 VSTD
In (Ramp)2030 ZFW
Flight2.88  -  2:539100  Pax0
Block2.88  -  2:539100  Cargo0
Departure WeatherKOKC 162052Z VRB03KT 10SM FEW250 20/M03 A3032 RMK AO2 SLP263 T02001028 56022 $
Destination WeatherKBOI 162053Z 14016KT 10SM CLR 22/M04 A3017 RMK AO2 SLP204 T02171044 58032
Flight CommentsDEP GATE 57 ARR GATE 2